createdAt,value
2022-12-23T00:01:27.715Z,53.00
2022-12-23T00:03:58.357Z,55.05
2022-12-23T00:06:25.633Z,54.45
2022-12-23T00:08:58.713Z,59.20
2022-12-23T00:11:27.085Z,56.97
2022-12-23T00:14:20.679Z,51.42
2022-12-23T00:16:49.472Z,50.20
2022-12-23T00:19:16.442Z,51.95
2022-12-23T00:21:43.470Z,50.22
2022-12-23T00:24:12.095Z,57.38
2022-12-23T00:26:39.126Z,47.70
2022-12-23T00:29:07.507Z,49.17
2022-12-23T00:31:34.548Z,51.20
2022-12-23T00:34:01.534Z,46.47
2022-12-23T00:36:30.866Z,45.25
2022-12-23T00:39:18.029Z,42.75
2022-12-23T00:42:04.489Z,41.45
2022-12-23T00:44:33.063Z,43.45
2022-12-23T00:47:00.029Z,42.88
2022-12-23T00:49:41.974Z,43.03
2022-12-23T00:52:11.249Z,37.80
2022-12-23T00:54:38.219Z,44.15
2022-12-23T00:57:05.501Z,39.28
2022-12-23T00:59:34.093Z,41.38
2022-12-23T01:02:20.135Z,41.22
2022-12-23T01:05:05.718Z,34.47
2022-12-23T01:07:32.665Z,38.13
2022-12-23T01:09:59.787Z,42.90
2022-12-23T01:12:26.775Z,41.65
2022-12-23T01:14:55.165Z,42.28
2022-12-23T01:17:22.253Z,37.67
2022-12-23T01:19:49.255Z,36.60
2022-12-23T01:22:16.333Z,40.13
2022-12-23T01:24:43.316Z,39.20
2022-12-23T01:27:10.321Z,37.00
2022-12-23T01:29:37.340Z,36.50
2022-12-23T01:32:05.920Z,37.83
2022-12-23T01:34:36.997Z,32.00
2022-12-23T01:37:04.825Z,34.70
2022-12-23T01:39:31.874Z,30.40
2022-12-23T01:42:17.289Z,32.58
2022-12-23T01:44:55.501Z,29.20
2022-12-23T01:47:28.853Z,38.45
2022-12-23T01:50:06.336Z,36.42
2022-12-23T01:52:38.899Z,35.42
2022-12-23T01:55:07.239Z,34.53
2022-12-23T01:57:35.886Z,34.70
2022-12-23T02:00:24.111Z,37.60
2022-12-23T02:03:11.554Z,37.38
2022-12-23T02:05:39.034Z,36.92
2022-12-23T02:08:25.387Z,45.60
2022-12-23T02:11:17.593Z,38.63
2022-12-23T02:14:09.847Z,41.38
2022-12-23T02:16:43.277Z,43.55
2022-12-23T02:19:17.829Z,39.30
2022-12-23T02:21:58.604Z,44.28
2022-12-23T02:25:01.965Z,35.97
2022-12-23T02:27:31.980Z,41.92
2022-12-23T02:30:31.703Z,40.13
2022-12-23T02:33:22.992Z,39.22
2022-12-23T02:35:57.903Z,37.40
2022-12-23T02:38:29.752Z,35.33
2022-12-23T02:41:04.581Z,34.17
2022-12-23T02:43:40.026Z,36.70
2022-12-23T02:46:11.407Z,35.70
2022-12-23T02:48:46.427Z,36.90
2022-12-23T02:51:15.598Z,32.38
2022-12-23T02:53:47.993Z,37.85
2022-12-23T02:56:17.709Z,40.28
2022-12-23T02:58:58.531Z,39.00
2022-12-23T03:01:27.777Z,36.50
2022-12-23T03:03:56.260Z,34.58
2022-12-23T03:06:31.339Z,38.47
2022-12-23T03:09:00.017Z,34.53
2022-12-23T03:11:40.307Z,34.25
2022-12-23T03:14:33.757Z,36.42
2022-12-23T03:17:14.913Z,38.85
2022-12-23T03:19:51.634Z,34.83
2022-12-23T03:22:24.583Z,31.63
2022-12-23T03:24:55.789Z,34.58
2022-12-23T03:27:27.616Z,28.52
2022-12-23T03:30:00.866Z,30.55
2022-12-23T03:32:29.475Z,32.75
2022-12-23T03:35:01.246Z,31.52
2022-12-23T03:37:32.550Z,29.45
2022-12-23T03:40:04.897Z,27.02
2022-12-23T03:42:36.259Z,53.03
2022-12-23T03:45:37.533Z,83.32
2022-12-23T03:47:59.959Z,68.82
2022-12-23T03:50:30.064Z,50.90
2022-12-23T03:53:01.976Z,38.10
2022-12-23T03:55:34.439Z,34.60
2022-12-23T03:58:09.979Z,32.22
2022-12-23T04:00:44.854Z,33.67
2022-12-23T04:03:19.386Z,37.30
2022-12-23T04:05:53.273Z,41.33
2022-12-23T04:08:24.364Z,59.65
2022-12-23T04:10:51.887Z,76.68
2022-12-23T04:13:19.235Z,58.92
2022-12-23T04:15:46.308Z,59.47
2022-12-23T04:18:13.604Z,50.20
2022-12-23T04:20:40.593Z,53.97
2022-12-23T04:23:08.989Z,44.38
2022-12-23T04:25:35.971Z,43.97
2022-12-23T04:28:02.950Z,44.72
2022-12-23T04:30:34.472Z,43.65
2022-12-23T04:33:02.569Z,45.28
2022-12-23T04:35:29.573Z,43.58
2022-12-23T04:37:56.641Z,42.47
2022-12-23T04:40:25.028Z,41.60
2022-12-23T04:42:52.366Z,37.10
2022-12-23T04:45:19.553Z,35.95
2022-12-23T04:47:46.663Z,46.00
2022-12-23T04:50:14.920Z,40.72
2022-12-23T04:52:41.951Z,60.78
2022-12-23T04:55:09.737Z,64.07
2022-12-23T04:57:38.102Z,77.47
2022-12-23T05:00:06.225Z,68.68
2022-12-23T05:02:33.228Z,72.05
2022-12-23T05:05:00.273Z,92.85
2022-12-23T05:07:27.319Z,89.05
2022-12-23T05:09:54.394Z,76.80
2022-12-23T05:12:21.337Z,68.72
2022-12-23T05:14:49.737Z,41.30
2022-12-23T05:17:16.706Z,40.67
2022-12-23T05:19:43.697Z,40.33
2022-12-23T05:22:10.675Z,39.08
2022-12-23T05:24:37.608Z,39.35
2022-12-23T05:27:04.588Z,32.40
2022-12-23T05:29:31.676Z,41.90
2022-12-23T05:32:00.089Z,40.25
2022-12-23T05:34:27.193Z,37.85
2022-12-23T05:36:54.199Z,32.33
2022-12-23T05:39:21.155Z,33.15
2022-12-23T05:41:48.248Z,30.30
2022-12-23T05:44:15.178Z,23.17
2022-12-23T05:46:42.513Z,22.83
2022-12-23T05:49:11.072Z,26.08
2022-12-23T05:51:38.050Z,28.15
2022-12-23T05:54:05.125Z,26.85
2022-12-23T05:56:32.108Z,28.05
2022-12-23T05:58:59.142Z,25.77
2022-12-23T06:01:26.211Z,36.92
2022-12-23T06:03:53.320Z,24.65
2022-12-23T06:06:21.854Z,28.98
2022-12-23T06:08:51.979Z,22.00
2022-12-23T06:11:21.557Z,27.73
2022-12-23T06:13:48.586Z,36.92
2022-12-23T06:16:15.727Z,29.52
2022-12-23T06:18:42.757Z,28.23
2022-12-23T06:21:09.847Z,25.45
2022-12-23T06:23:38.150Z,32.40
2022-12-23T06:26:05.443Z,30.05
2022-12-23T06:28:32.380Z,24.85
2022-12-23T06:30:59.512Z,28.98
2022-12-23T06:33:26.707Z,20.85
2022-12-23T06:35:53.839Z,22.45
2022-12-23T06:38:20.809Z,25.90
2022-12-23T06:40:49.307Z,21.05
2022-12-23T06:43:16.341Z,20.65
2022-12-23T06:45:46.596Z,22.55
2022-12-23T06:48:13.821Z,23.88
2022-12-23T06:50:40.837Z,23.65
2022-12-23T06:53:08.746Z,22.67
2022-12-23T06:55:35.837Z,26.73
2022-12-23T06:58:04.786Z,21.42
2022-12-23T07:00:32.192Z,27.75
2022-12-23T07:02:59.414Z,24.73
2022-12-23T07:05:29.470Z,28.67
2022-12-23T07:08:00.428Z,35.80
2022-12-23T07:10:27.392Z,41.72
2022-12-23T07:12:54.340Z,29.73
2022-12-23T07:15:24.564Z,33.80
2022-12-23T07:17:51.579Z,48.97
2022-12-23T07:20:18.747Z,36.88
2022-12-23T07:22:45.896Z,54.25
2022-12-23T07:25:13.766Z,72.47
2022-12-23T07:27:40.896Z,66.68
2022-12-23T07:30:09.119Z,66.30
2022-12-23T07:32:37.609Z,56.53
2022-12-23T07:35:05.298Z,78.03
2022-12-23T07:37:32.311Z,105.63
2022-12-23T07:40:02.303Z,94.88
2022-12-23T07:42:45.227Z,79.57
2022-12-23T07:45:12.872Z,50.95
2022-12-23T07:47:41.929Z,47.22
2022-12-23T07:50:09.627Z,38.75
2022-12-23T07:52:36.964Z,37.90
2022-12-23T07:55:05.432Z,43.63
2022-12-23T07:57:37.893Z,36.67
2022-12-23T08:00:07.354Z,53.88
2022-12-23T08:02:40.968Z,69.30
2022-12-23T08:05:09.163Z,71.93
2022-12-23T08:07:36.668Z,53.60
2022-12-23T08:10:04.413Z,44.33
2022-12-23T08:12:31.907Z,48.95
2022-12-23T08:14:59.141Z,55.92
2022-12-23T08:17:26.826Z,41.88
2022-12-23T08:19:55.249Z,35.30
2022-12-23T08:22:22.486Z,36.13
2022-12-23T08:24:50.328Z,41.28
2022-12-23T08:27:17.699Z,49.90
2022-12-23T08:29:44.641Z,69.57
2022-12-23T08:32:11.863Z,74.72
2022-12-23T08:34:39.037Z,72.00
2022-12-23T08:37:07.390Z,59.67
2022-12-23T08:39:34.810Z,103.90
2022-12-23T08:42:01.810Z,82.90
2022-12-23T08:44:29.820Z,67.30
2022-12-23T08:46:57.244Z,71.13
2022-12-23T08:49:24.498Z,67.15
2022-12-23T08:51:51.711Z,52.72
2022-12-23T08:54:20.578Z,55.83
2022-12-23T08:56:47.663Z,57.30
2022-12-23T08:59:19.531Z,49.78
2022-12-23T09:01:48.274Z,57.38
2022-12-23T09:04:15.835Z,52.45
2022-12-23T09:06:43.803Z,48.35
2022-12-23T09:09:12.547Z,60.40
2022-12-23T09:11:40.916Z,60.15
2022-12-23T09:14:10.286Z,54.47
2022-12-23T09:16:37.676Z,44.17
2022-12-23T09:19:04.974Z,72.78
2022-12-23T09:21:31.927Z,58.00
2022-12-23T09:23:59.237Z,44.83
2022-12-23T09:26:27.979Z,48.60
2022-12-23T09:28:57.145Z,53.85
2022-12-23T09:31:27.993Z,44.78
2022-12-23T09:36:26.344Z,48.42
2022-12-23T09:38:57.754Z,48.35
2022-12-23T09:41:34.998Z,52.22
2022-12-23T09:44:21.208Z,53.60
2022-12-23T09:46:51.765Z,43.28
2022-12-23T09:49:22.557Z,46.35
2022-12-23T09:51:54.159Z,42.97
2022-12-23T09:54:23.556Z,45.13
2022-12-23T09:56:54.084Z,51.90
2022-12-23T09:59:35.337Z,40.88
2022-12-23T10:02:16.578Z,47.05
2022-12-23T10:04:50.166Z,39.55
2022-12-23T10:07:28.952Z,45.15
2022-12-23T10:09:58.134Z,40.83
2022-12-23T10:12:39.533Z,90.88
2022-12-23T10:15:19.315Z,78.13
2022-12-23T10:17:47.387Z,59.42
2022-12-23T10:20:19.268Z,43.03
2022-12-23T10:22:47.407Z,37.05
2022-12-23T10:25:20.467Z,43.75
2022-12-23T10:27:47.506Z,39.45
2022-12-23T10:30:51.496Z,34.70
2022-12-23T10:33:13.781Z,36.47
2022-12-23T10:35:54.851Z,35.72
2022-12-23T10:38:36.259Z,36.13
2022-12-23T10:41:11.931Z,22.80
2022-12-23T10:46:25.326Z,32.03
2022-12-23T10:49:00.312Z,23.85
2022-12-23T10:51:32.702Z,20.35
2022-12-23T10:54:04.129Z,21.58
2022-12-23T10:56:32.186Z,23.08
2022-12-23T10:59:01.264Z,22.55
2022-12-23T11:01:31.315Z,21.05
2022-12-23T11:04:04.854Z,20.35
2022-12-23T11:06:37.725Z,17.35
2022-12-23T11:09:06.447Z,13.65
2022-12-23T11:11:56.713Z,14.57
2022-12-23T11:14:31.981Z,16.08
2022-12-23T11:19:27.743Z,10.60
2022-12-23T11:21:56.147Z,12.10
2022-12-23T11:24:24.611Z,22.77
2022-12-23T11:27:00.768Z,13.68
2022-12-23T11:29:31.971Z,9.38
2022-12-23T11:32:02.923Z,7.38
2022-12-23T11:34:36.308Z,5.93
2022-12-23T11:37:07.483Z,6.10
2022-12-23T11:39:36.768Z,9.05
2022-12-23T11:42:07.540Z,6.97
2022-12-23T11:44:40.316Z,10.77
2022-12-23T11:47:29.347Z,6.00
2022-12-23T11:49:57.923Z,6.75
2022-12-23T11:52:26.934Z,7.25
2022-12-23T11:54:55.836Z,7.57
2022-12-23T11:57:28.264Z,9.13
2022-12-23T11:59:59.567Z,5.25
2022-12-23T12:02:35.685Z,7.50
2022-12-23T12:05:07.953Z,5.53
2022-12-23T12:07:35.937Z,5.82
2022-12-23T12:10:04.133Z,9.05
2022-12-23T12:12:35.703Z,6.22
2022-12-23T12:15:03.107Z,5.85
2022-12-23T12:17:38.260Z,8.73
2022-12-23T12:20:12.188Z,6.93
2022-12-23T12:22:44.947Z,10.02
2022-12-23T12:25:18.302Z,6.90
2022-12-23T12:27:50.008Z,6.80
2022-12-23T12:30:20.247Z,10.45
2022-12-23T12:32:55.123Z,10.77
2022-12-23T12:35:31.005Z,11.90
2022-12-23T12:38:05.306Z,8.27
2022-12-23T12:40:36.607Z,10.05
2022-12-23T12:43:11.944Z,9.93
2022-12-23T12:45:46.013Z,9.43
2022-12-23T12:48:46.773Z,8.70
2022-12-23T12:51:22.676Z,6.72
2022-12-23T12:54:05.570Z,8.25
2022-12-23T12:56:40.365Z,9.20
2022-12-23T12:59:15.712Z,8.95
2022-12-23T13:01:53.118Z,9.75
2022-12-23T13:04:41.573Z,10.85
2022-12-23T13:07:17.025Z,6.82
2022-12-23T13:09:55.384Z,10.05
2022-12-23T13:12:31.253Z,6.97
2022-12-23T13:15:04.433Z,9.98
2022-12-23T13:17:35.154Z,13.15
2022-12-23T13:20:16.458Z,8.63
2022-12-23T13:22:47.470Z,9.90
2022-12-23T13:25:19.801Z,11.00
2022-12-23T13:27:54.872Z,11.63
2022-12-23T13:30:23.898Z,7.90
2022-12-23T13:33:20.921Z,10.57
2022-12-23T13:36:06.130Z,8.77
2022-12-23T13:41:16.471Z,9.40
2022-12-23T13:43:49.070Z,8.63
2022-12-23T13:46:25.453Z,10.35
2022-12-23T13:48:58.993Z,11.98
2022-12-23T13:51:35.127Z,9.13
2022-12-23T13:54:15.328Z,8.38
2022-12-23T13:56:47.519Z,9.25
2022-12-23T13:59:16.769Z,12.13
2022-12-23T14:01:46.833Z,12.02
2022-12-23T14:04:32.589Z,14.68
2022-12-23T14:09:32.528Z,15.38
2022-12-23T14:12:26.331Z,13.43
2022-12-23T14:15:21.287Z,11.85
2022-12-23T14:18:02.559Z,14.48
2022-12-23T14:20:43.227Z,13.13
2022-12-23T14:23:27.705Z,13.75
2022-12-23T14:26:07.314Z,11.48
2022-12-23T14:29:06.631Z,15.63
2022-12-23T14:31:38.736Z,17.40
2022-12-23T14:34:24.616Z,19.25
2022-12-23T14:37:24.791Z,20.40
2022-12-23T14:39:53.845Z,16.70
2022-12-23T14:42:34.688Z,15.27
2022-12-23T14:45:40.225Z,20.15
2022-12-23T14:49:04.503Z,16.13
2022-12-23T14:51:40.245Z,15.93
2022-12-23T14:54:17.027Z,39.83
2022-12-23T14:57:07.975Z,25.35
2022-12-23T14:59:46.798Z,21.63
2022-12-23T15:02:22.515Z,15.68
2022-12-23T15:04:53.866Z,16.80
2022-12-23T15:07:26.087Z,16.95
2022-12-23T15:10:00.745Z,18.15
2022-12-23T15:15:01.203Z,13.05
2022-12-23T15:17:30.240Z,15.85
2022-12-23T15:20:08.254Z,14.43
2022-12-23T15:22:35.413Z,14.18
2022-12-23T15:25:02.416Z,16.90
2022-12-23T15:27:35.465Z,22.25
2022-12-23T15:30:02.678Z,16.30
2022-12-23T15:32:30.075Z,20.35
2022-12-23T15:35:02.769Z,26.63
2022-12-23T15:37:30.861Z,29.60
2022-12-23T15:40:09.441Z,17.88
2022-12-23T15:42:47.065Z,17.75
2022-12-23T15:45:34.389Z,23.25
2022-12-23T15:48:02.933Z,30.33
2022-12-23T15:50:30.806Z,24.60
2022-12-23T15:53:05.049Z,28.35
2022-12-23T15:55:33.600Z,23.20
2022-12-23T15:58:04.006Z,21.45
2022-12-23T16:00:38.223Z,18.02
2022-12-23T16:03:10.422Z,17.00
2022-12-23T16:05:44.902Z,35.22
2022-12-23T16:08:28.591Z,32.50
2022-12-23T16:11:03.360Z,36.35
2022-12-23T16:13:32.722Z,31.98
2022-12-23T16:16:17.938Z,18.63
2022-12-23T16:18:47.676Z,23.48
2022-12-23T16:21:15.516Z,20.50
2022-12-23T16:23:50.541Z,24.67
2022-12-23T16:26:18.380Z,26.35
2022-12-23T16:28:48.392Z,22.50
2022-12-23T16:31:17.653Z,20.80
2022-12-23T16:33:48.232Z,13.88
2022-12-23T16:36:22.287Z,16.35
2022-12-23T16:38:51.421Z,14.05
2022-12-23T16:41:19.679Z,15.05
2022-12-23T16:43:52.475Z,12.73
2022-12-23T16:46:22.372Z,18.73
2022-12-23T16:48:51.307Z,15.00
2022-12-23T16:51:20.751Z,18.75
2022-12-23T16:53:47.985Z,18.73
2022-12-23T16:56:16.667Z,16.67
2022-12-23T16:58:44.181Z,14.82
2022-12-23T17:01:15.265Z,15.40
2022-12-23T17:03:42.492Z,15.43
2022-12-23T17:06:12.650Z,18.55
2022-12-23T17:08:39.585Z,17.98
2022-12-23T17:11:12.375Z,17.73
2022-12-23T17:13:39.437Z,17.55
2022-12-23T17:16:10.086Z,18.80
2022-12-23T17:18:38.496Z,18.42
2022-12-23T17:21:05.829Z,15.93
2022-12-23T17:23:32.966Z,15.73
2022-12-23T17:26:01.132Z,17.45
2022-12-23T17:28:30.225Z,15.15
2022-12-23T17:30:58.249Z,15.15
2022-12-23T17:33:29.040Z,18.35
2022-12-23T17:35:57.750Z,14.43
2022-12-23T17:38:25.071Z,18.25
2022-12-23T17:40:52.176Z,14.52
2022-12-23T17:43:19.150Z,16.45
2022-12-23T17:45:47.168Z,19.10
2022-12-23T17:48:20.824Z,14.23
2022-12-23T17:50:50.387Z,18.88
2022-12-23T17:53:19.877Z,17.52
2022-12-23T17:55:46.937Z,15.52
2022-12-23T17:58:14.494Z,14.25
2022-12-23T18:00:41.614Z,15.98
2022-12-23T18:03:20.893Z,15.63
2022-12-23T18:05:47.931Z,16.13
2022-12-23T18:08:15.368Z,13.48
2022-12-23T18:10:44.495Z,18.77
2022-12-23T18:13:15.820Z,16.42
2022-12-23T18:15:44.548Z,16.85
2022-12-23T18:18:16.832Z,15.02
2022-12-23T18:20:50.535Z,18.27
2022-12-23T18:23:22.491Z,14.77
2022-12-23T18:25:50.970Z,16.10
2022-12-23T18:28:17.951Z,18.77
2022-12-23T18:30:45.413Z,18.67
2022-12-23T18:33:13.132Z,17.50
2022-12-23T18:35:44.085Z,21.88
2022-12-23T18:38:11.481Z,19.63
2022-12-23T18:40:39.436Z,17.88
2022-12-23T18:43:17.887Z,18.65
2022-12-23T18:45:52.470Z,18.92
2022-12-23T18:48:21.520Z,18.20
2022-12-23T18:50:48.855Z,17.80
2022-12-23T18:53:23.443Z,16.13
2022-12-23T18:55:51.574Z,18.85
2022-12-23T18:58:20.149Z,19.38
2022-12-23T19:00:48.484Z,19.23
2022-12-23T19:03:21.881Z,21.95
2022-12-23T19:05:50.037Z,19.80
2022-12-23T19:08:23.612Z,21.60
2022-12-23T19:10:53.379Z,23.08
2022-12-23T19:13:21.849Z,23.83
2022-12-23T19:15:48.928Z,20.15
2022-12-23T19:18:17.963Z,23.60
2022-12-23T19:20:46.097Z,23.73
2022-12-23T19:23:13.657Z,19.83
2022-12-23T19:25:41.866Z,26.80
2022-12-23T19:28:09.525Z,22.23
2022-12-23T19:30:40.675Z,26.95
2022-12-23T19:33:07.758Z,23.10
2022-12-23T19:35:34.752Z,22.10
2022-12-23T19:38:01.737Z,22.42
2022-12-23T19:40:29.236Z,19.75
2022-12-23T19:42:56.224Z,22.05
2022-12-23T19:45:23.159Z,22.63
2022-12-23T19:47:51.432Z,24.38
2022-12-23T19:50:19.772Z,21.35
2022-12-23T19:52:46.798Z,26.50
2022-12-23T19:55:15.634Z,22.20
2022-12-23T19:57:43.232Z,23.83
2022-12-23T20:00:11.273Z,23.85
2022-12-23T20:02:41.417Z,22.80
2022-12-23T20:05:10.315Z,22.63
2022-12-23T20:07:37.525Z,24.23
2022-12-23T20:10:05.789Z,23.75
2022-12-23T20:12:33.127Z,24.25
2022-12-23T20:15:00.221Z,24.52
2022-12-23T20:17:27.185Z,22.55
2022-12-23T20:19:54.171Z,24.08
2022-12-23T20:22:22.475Z,29.67
2022-12-23T20:24:49.876Z,26.63
2022-12-23T20:27:20.154Z,21.92
2022-12-23T20:29:49.756Z,23.00
2022-12-23T20:32:16.680Z,23.63
2022-12-23T20:34:43.611Z,20.02
2022-12-23T20:37:11.814Z,21.02
2022-12-23T20:39:40.230Z,23.23
2022-12-23T20:42:07.172Z,18.33
2022-12-23T20:44:35.997Z,24.00
2022-12-23T20:47:04.093Z,22.00
2022-12-23T20:49:31.221Z,22.30
2022-12-23T20:51:58.228Z,20.77
2022-12-23T20:54:32.190Z,19.98
2022-12-23T20:57:02.699Z,20.67
2022-12-23T20:59:29.704Z,23.63
2022-12-23T21:01:59.118Z,25.20
2022-12-23T21:04:26.739Z,21.83
2022-12-23T21:06:53.794Z,24.48
2022-12-23T21:09:20.816Z,25.42
2022-12-23T21:11:48.223Z,29.15
2022-12-23T21:14:17.073Z,26.15
2022-12-23T21:16:44.484Z,27.92
2022-12-23T21:19:15.467Z,27.55
2022-12-23T21:21:42.497Z,33.05
2022-12-23T21:24:10.564Z,38.15
2022-12-23T21:26:38.034Z,42.67
2022-12-23T21:29:06.834Z,42.67
2022-12-23T21:31:37.764Z,39.55
2022-12-23T21:34:05.589Z,39.80
2022-12-23T21:36:34.302Z,39.65
2022-12-23T21:39:01.590Z,37.80
2022-12-23T21:41:30.205Z,36.38
2022-12-23T21:43:57.859Z,36.85
2022-12-23T21:46:26.237Z,32.78
2022-12-23T21:48:55.667Z,31.40
2022-12-23T21:51:25.013Z,42.70
2022-12-23T21:53:53.717Z,39.83
2022-12-23T21:56:24.292Z,46.38
2022-12-23T21:58:55.012Z,45.92
2022-12-23T22:01:22.392Z,43.33
2022-12-23T22:03:50.622Z,43.05
2022-12-23T22:06:21.988Z,41.10
2022-12-23T22:08:50.291Z,38.45
2022-12-23T22:11:19.882Z,34.47
2022-12-23T22:13:47.622Z,37.13
2022-12-23T22:16:16.608Z,36.53
2022-12-23T22:18:44.769Z,47.22
2022-12-23T22:21:13.860Z,41.08
2022-12-23T22:23:42.727Z,49.60
2022-12-23T22:26:12.674Z,56.13
2022-12-23T22:28:40.292Z,54.75
2022-12-23T22:31:11.944Z,52.20
2022-12-23T22:33:38.963Z,54.13
2022-12-23T22:36:06.832Z,70.20
2022-12-23T22:38:33.866Z,76.22
2022-12-23T22:41:02.212Z,61.65
2022-12-23T22:43:29.136Z,52.83
2022-12-23T22:45:57.400Z,66.82
2022-12-23T22:48:24.981Z,57.42
2022-12-23T22:50:53.805Z,53.92
2022-12-23T22:53:26.281Z,52.95
2022-12-23T22:55:57.574Z,54.17
2022-12-23T22:58:26.630Z,55.50
2022-12-23T23:00:53.781Z,54.30
2022-12-23T23:03:20.793Z,57.67
2022-12-23T23:05:56.551Z,59.53
2022-12-23T23:08:24.028Z,58.38
2022-12-23T23:10:51.044Z,58.63
2022-12-23T23:13:18.088Z,53.97
2022-12-23T23:15:47.740Z,45.42
2022-12-23T23:18:14.700Z,57.50
2022-12-23T23:20:41.993Z,63.60
2022-12-23T23:23:09.004Z,57.15
2022-12-23T23:25:36.000Z,47.42
2022-12-23T23:28:02.972Z,40.60
2022-12-23T23:30:29.972Z,50.53
2022-12-23T23:32:58.334Z,47.03
2022-12-23T23:35:25.322Z,62.42
2022-12-23T23:37:52.399Z,58.42
2022-12-23T23:40:19.381Z,73.85
2022-12-23T23:42:46.339Z,75.05
2022-12-23T23:45:13.367Z,76.38
2022-12-23T23:47:40.323Z,81.30
2022-12-23T23:50:09.535Z,69.55
2022-12-23T23:52:36.546Z,74.47
2022-12-23T23:55:03.720Z,69.05
2022-12-23T23:57:30.768Z,72.40
2022-12-23T23:59:57.802Z,66.93
